createdAt,value
2022-08-19T00:01:31.353Z,23.35
2022-08-19T00:03:59.849Z,23.27
2022-08-19T00:06:28.387Z,23.25
2022-08-19T00:08:56.540Z,22.50
2022-08-19T00:11:25.856Z,23.17
2022-08-19T00:13:53.796Z,22.83
2022-08-19T00:16:25.107Z,23.30
2022-08-19T00:18:54.537Z,22.92
2022-08-19T00:21:22.014Z,23.80
2022-08-19T00:23:49.058Z,22.40
2022-08-19T00:26:16.279Z,21.83
2022-08-19T00:28:43.256Z,22.98
2022-08-19T00:31:10.998Z,22.73
2022-08-19T00:33:39.099Z,24.05
2022-08-19T00:36:09.734Z,25.20
2022-08-19T00:38:38.643Z,25.67
2022-08-19T00:41:07.179Z,24.58
2022-08-19T00:43:34.690Z,24.48
2022-08-19T00:46:05.803Z,23.33
2022-08-19T00:48:34.918Z,24.48
2022-08-19T00:51:02.661Z,25.40
2022-08-19T00:53:32.453Z,25.27
2022-08-19T00:56:02.002Z,26.38
2022-08-19T00:58:33.390Z,26.52
2022-08-19T01:01:01.869Z,25.83
2022-08-19T01:03:29.313Z,24.00
2022-08-19T01:06:19.933Z,25.58
2022-08-19T01:08:49.912Z,25.85
2022-08-19T01:11:18.186Z,26.58
2022-08-19T01:13:50.003Z,26.55
2022-08-19T01:16:20.340Z,26.13
2022-08-19T01:18:47.996Z,25.20
2022-08-19T01:21:29.883Z,27.05
2022-08-19T01:23:57.132Z,25.05
2022-08-19T01:26:26.039Z,25.88
2022-08-19T01:28:58.347Z,26.35
2022-08-19T01:31:33.308Z,27.27
2022-08-19T01:34:02.770Z,28.83
2022-08-19T01:36:36.434Z,26.48
2022-08-19T01:39:07.077Z,27.13
2022-08-19T01:41:35.322Z,27.20
2022-08-19T01:44:17.163Z,24.25
2022-08-19T01:46:48.727Z,27.85
2022-08-19T01:49:17.559Z,27.98
2022-08-19T01:51:44.741Z,27.98
2022-08-19T01:54:23.245Z,26.67
2022-08-19T01:57:01.284Z,25.90
2022-08-19T01:59:29.198Z,26.67
2022-08-19T02:01:56.431Z,25.42
2022-08-19T02:04:24.423Z,25.67
2022-08-19T02:06:51.749Z,25.40
2022-08-19T02:09:18.953Z,24.17
2022-08-19T02:11:45.992Z,26.85
2022-08-19T02:14:13.173Z,26.13
2022-08-19T02:16:41.133Z,27.42
2022-08-19T02:19:08.494Z,28.27
2022-08-19T02:21:36.213Z,28.27
2022-08-19T02:24:03.460Z,27.42
2022-08-19T02:26:30.679Z,28.48
2022-08-19T02:28:57.923Z,27.52
2022-08-19T02:31:26.783Z,31.17
2022-08-19T02:33:56.575Z,30.63
2022-08-19T02:36:26.011Z,31.38
2022-08-19T02:38:54.891Z,27.98
2022-08-19T02:41:34.079Z,28.15
2022-08-19T02:44:30.589Z,27.40
2022-08-19T02:46:52.921Z,26.30
2022-08-19T02:49:20.162Z,23.95
2022-08-19T02:51:47.677Z,27.40
2022-08-19T02:54:16.032Z,24.90
2022-08-19T02:56:44.899Z,26.42
2022-08-19T02:59:12.923Z,28.08
2022-08-19T03:01:42.051Z,26.85
2022-08-19T03:04:12.303Z,27.30
2022-08-19T03:06:41.097Z,25.75
2022-08-19T03:09:08.983Z,25.40
2022-08-19T03:11:36.433Z,25.73
2022-08-19T03:14:05.630Z,27.85
2022-08-19T03:16:36.603Z,27.73
2022-08-19T03:19:03.897Z,27.92
2022-08-19T03:21:33.549Z,28.27
2022-08-19T03:24:04.873Z,27.75
2022-08-19T03:26:32.909Z,28.35
2022-08-19T03:29:04.996Z,27.30
2022-08-19T03:31:43.975Z,27.48
2022-08-19T03:34:27.702Z,28.10
2022-08-19T03:36:59.862Z,27.10
2022-08-19T03:39:27.503Z,28.33
2022-08-19T03:42:31.723Z,26.23
2022-08-19T03:44:50.541Z,30.20
2022-08-19T03:47:17.903Z,29.35
2022-08-19T03:49:45.756Z,28.70
2022-08-19T03:52:13.034Z,28.58
2022-08-19T03:54:40.365Z,27.63
2022-08-19T03:57:08.648Z,29.20
2022-08-19T03:59:38.199Z,28.42
2022-08-19T04:02:10.317Z,31.90
2022-08-19T04:04:44.169Z,30.45
2022-08-19T04:07:15.863Z,28.40
2022-08-19T04:09:43.282Z,30.35
2022-08-19T04:12:10.282Z,28.40
2022-08-19T04:14:37.366Z,28.80
2022-08-19T04:17:05.984Z,28.33
2022-08-19T04:19:35.654Z,27.08
2022-08-19T04:22:03.926Z,26.65
2022-08-19T04:24:31.213Z,27.65
2022-08-19T04:27:01.271Z,27.80
2022-08-19T04:29:28.503Z,26.13
2022-08-19T04:31:57.086Z,27.75
2022-08-19T04:34:29.337Z,28.70
2022-08-19T04:36:59.089Z,28.15
2022-08-19T04:39:49.661Z,27.35
2022-08-19T04:42:37.561Z,26.58
2022-08-19T04:45:09.228Z,30.20
2022-08-19T04:47:49.230Z,25.38
2022-08-19T04:50:27.575Z,25.05
2022-08-19T04:52:57.067Z,25.63
2022-08-19T04:55:26.807Z,23.30
2022-08-19T04:57:54.955Z,24.63
2022-08-19T05:00:22.505Z,23.42
2022-08-19T05:02:50.328Z,24.13
2022-08-19T05:05:17.920Z,23.67
2022-08-19T05:07:45.052Z,23.05
2022-08-19T05:10:12.689Z,24.52
2022-08-19T05:12:40.139Z,22.85
2022-08-19T05:15:09.667Z,22.95
2022-08-19T05:17:38.850Z,21.15
2022-08-19T05:20:26.937Z,20.70
2022-08-19T05:22:54.247Z,21.00
2022-08-19T05:25:22.593Z,20.40
2022-08-19T05:27:49.938Z,19.45
2022-08-19T05:30:18.210Z,19.17
2022-08-19T05:32:45.767Z,19.65
2022-08-19T05:35:12.945Z,18.75
2022-08-19T05:37:41.735Z,19.67
2022-08-19T05:40:10.320Z,19.05
2022-08-19T05:42:38.107Z,18.73
2022-08-19T05:45:05.929Z,18.25
2022-08-19T05:47:33.260Z,17.48
2022-08-19T05:50:02.955Z,18.55
2022-08-19T05:52:33.434Z,19.02
2022-08-19T05:55:00.641Z,18.92
2022-08-19T05:57:29.854Z,17.15
2022-08-19T05:59:59.115Z,16.88
2022-08-19T06:02:28.510Z,16.15
2022-08-19T06:04:55.474Z,16.15
2022-08-19T06:07:23.100Z,14.77
2022-08-19T06:09:58.942Z,14.73
2022-08-19T06:12:32.647Z,15.00
2022-08-19T06:15:05.944Z,15.98
2022-08-19T06:17:35.742Z,13.57
2022-08-19T06:20:14.451Z,13.80
2022-08-19T06:22:44.289Z,13.98
2022-08-19T06:25:13.010Z,14.70
2022-08-19T06:27:58.616Z,12.60
2022-08-19T06:30:28.242Z,12.98
2022-08-19T06:32:55.306Z,12.75
2022-08-19T06:35:22.472Z,12.60
2022-08-19T06:37:49.922Z,11.65
2022-08-19T06:40:16.985Z,11.45
2022-08-19T06:42:52.311Z,11.38
2022-08-19T06:45:24.875Z,11.25
2022-08-19T06:47:57.096Z,11.02
2022-08-19T06:50:25.302Z,10.30
2022-08-19T06:52:53.283Z,11.32
2022-08-19T06:55:20.912Z,11.15
2022-08-19T06:57:49.286Z,10.90
2022-08-19T07:00:16.943Z,10.23
2022-08-19T07:02:49.614Z,10.25
2022-08-19T07:05:23.319Z,10.40
2022-08-19T07:07:51.119Z,10.48
2022-08-19T07:10:20.117Z,10.88
2022-08-19T07:12:48.555Z,9.60
2022-08-19T07:15:16.684Z,9.20
2022-08-19T07:17:45.931Z,9.35
2022-08-19T07:20:16.673Z,9.25
2022-08-19T07:22:46.460Z,8.88
2022-08-19T07:25:14.310Z,9.18
2022-08-19T07:27:41.542Z,9.38
2022-08-19T07:30:14.382Z,8.73
2022-08-19T07:32:41.637Z,8.93
2022-08-19T07:35:10.346Z,10.35
2022-08-19T07:37:38.172Z,9.48
2022-08-19T07:40:08.682Z,8.95
2022-08-19T07:42:35.943Z,7.53
2022-08-19T07:45:03.556Z,8.05
2022-08-19T07:47:58.507Z,9.27
2022-08-19T07:50:20.632Z,8.27
2022-08-19T07:52:50.624Z,8.05
2022-08-19T07:55:41.526Z,7.85
2022-08-19T07:58:14.491Z,6.95
2022-08-19T08:00:43.281Z,7.32
2022-08-19T08:03:11.258Z,7.88
2022-08-19T08:05:56.980Z,6.57
2022-08-19T08:08:44.301Z,6.95
2022-08-19T08:11:20.047Z,7.28
2022-08-19T08:14:01.107Z,6.20
2022-08-19T08:16:47.086Z,6.25
2022-08-19T08:19:20.633Z,6.30
2022-08-19T08:21:58.955Z,6.10
2022-08-19T08:24:29.544Z,5.97
2022-08-19T08:27:01.137Z,6.10
2022-08-19T08:29:35.114Z,6.25
2022-08-19T08:32:04.538Z,6.13
2022-08-19T08:34:42.413Z,5.60
2022-08-19T08:37:09.997Z,6.53
2022-08-19T08:39:37.066Z,6.13
2022-08-19T08:42:23.815Z,6.40
2022-08-19T08:45:02.597Z,6.05
2022-08-19T08:47:47.188Z,6.40
2022-08-19T08:50:36.647Z,6.13
2022-08-19T08:53:06.790Z,5.95
2022-08-19T08:55:36.691Z,6.22
2022-08-19T08:58:10.378Z,6.95
2022-08-19T09:00:41.309Z,6.47
2022-08-19T09:03:17.343Z,6.85
2022-08-19T09:05:57.185Z,6.35
2022-08-19T09:08:40.480Z,6.35
2022-08-19T09:11:42.603Z,6.78
2022-08-19T09:14:07.941Z,7.05
2022-08-19T09:16:35.350Z,6.30
2022-08-19T09:19:06.396Z,6.85
2022-08-19T09:21:34.319Z,6.35
2022-08-19T09:24:03.700Z,6.53
2022-08-19T09:26:47.415Z,6.72
2022-08-19T09:29:22.678Z,6.25
2022-08-19T09:31:51.015Z,6.70
2022-08-19T09:34:21.359Z,7.32
2022-08-19T09:36:54.232Z,7.28
2022-08-19T09:39:22.300Z,6.60
2022-08-19T09:41:51.082Z,6.70
2022-08-19T09:44:19.012Z,7.28
2022-08-19T09:46:48.409Z,7.13
2022-08-19T09:49:18.309Z,6.45
2022-08-19T09:51:51.302Z,6.38
2022-08-19T09:54:23.886Z,6.43
2022-08-19T09:56:55.335Z,6.93
2022-08-19T09:59:23.041Z,6.35
2022-08-19T10:01:50.349Z,6.53
2022-08-19T10:04:20.466Z,5.85
2022-08-19T10:06:53.555Z,6.38
2022-08-19T10:09:26.213Z,6.78
2022-08-19T10:12:03.027Z,6.32
2022-08-19T10:14:31.073Z,6.72
2022-08-19T10:16:59.288Z,7.30
2022-08-19T10:19:27.395Z,7.15
2022-08-19T10:21:58.656Z,7.05
2022-08-19T10:24:29.067Z,7.55
2022-08-19T10:26:59.761Z,6.70
2022-08-19T10:29:31.878Z,6.43
2022-08-19T10:32:09.872Z,6.85
2022-08-19T10:34:48.429Z,6.32
2022-08-19T10:37:28.957Z,6.80
2022-08-19T10:39:58.296Z,7.45
2022-08-19T10:42:25.615Z,7.55
2022-08-19T10:44:52.768Z,7.47
2022-08-19T10:47:25.067Z,7.13
2022-08-19T10:50:14.624Z,6.70
2022-08-19T10:52:49.749Z,7.25
2022-08-19T10:55:43.744Z,7.25
2022-08-19T10:58:13.403Z,6.32
2022-08-19T11:00:41.506Z,7.20
2022-08-19T11:03:09.544Z,7.32
2022-08-19T11:05:39.907Z,7.10
2022-08-19T11:08:22.538Z,6.95
2022-08-19T11:11:01.681Z,7.70
2022-08-19T11:13:38.275Z,6.95
2022-08-19T11:16:09.713Z,7.05
2022-08-19T11:18:44.239Z,6.88
2022-08-19T11:21:20.110Z,6.70
2022-08-19T11:23:51.524Z,6.43
2022-08-19T11:26:21.027Z,6.43
2022-08-19T11:28:49.192Z,6.57
2022-08-19T11:31:19.756Z,6.70
2022-08-19T11:33:48.097Z,7.72
2022-08-19T11:36:17.029Z,6.68
2022-08-19T11:38:45.913Z,6.43
2022-08-19T11:41:13.101Z,6.57
2022-08-19T11:43:40.644Z,6.68
2022-08-19T11:46:13.983Z,6.88
2022-08-19T11:48:42.084Z,6.25
2022-08-19T11:51:16.795Z,6.22
2022-08-19T11:53:44.026Z,5.82
2022-08-19T11:56:11.555Z,6.50
2022-08-19T11:58:39.145Z,6.38
2022-08-19T12:01:08.413Z,7.00
2022-08-19T12:03:35.575Z,6.38
2022-08-19T12:06:13.708Z,6.70
2022-08-19T12:08:42.200Z,6.40
2022-08-19T12:11:09.207Z,7.38
2022-08-19T12:13:37.326Z,6.28
2022-08-19T12:16:17.653Z,5.70
2022-08-19T12:18:47.415Z,5.93
2022-08-19T12:21:18.252Z,6.32
2022-08-19T12:23:50.013Z,6.20
2022-08-19T12:26:21.211Z,6.57
2022-08-19T12:28:49.214Z,6.18
2022-08-19T12:31:17.426Z,5.78
2022-08-19T12:33:44.793Z,6.57
2022-08-19T12:36:13.440Z,6.35
2022-08-19T12:38:41.329Z,7.00
2022-08-19T12:41:13.337Z,6.50
2022-08-19T12:43:40.761Z,6.65
2022-08-19T12:46:08.197Z,6.30
2022-08-19T12:48:42.577Z,6.65
2022-08-19T12:51:13.684Z,6.70
2022-08-19T12:53:41.649Z,6.38
2022-08-19T12:56:12.192Z,6.82
2022-08-19T12:58:40.394Z,5.97
2022-08-19T13:01:11.161Z,6.32
2022-08-19T13:03:40.734Z,6.55
2022-08-19T13:06:09.287Z,5.80
2022-08-19T13:08:37.297Z,6.40
2022-08-19T13:11:13.393Z,7.03
2022-08-19T13:13:43.610Z,6.25
2022-08-19T13:16:12.634Z,5.82
2022-08-19T13:18:41.294Z,6.18
2022-08-19T13:21:12.642Z,5.57
2022-08-19T13:23:40.975Z,6.50
2022-08-19T13:26:09.821Z,6.32
2022-08-19T13:28:55.494Z,5.90
2022-08-19T13:31:43.426Z,6.68
2022-08-19T13:34:11.218Z,6.82
2022-08-19T13:36:39.074Z,5.60
2022-08-19T13:39:08.630Z,5.75
2022-08-19T13:41:37.188Z,6.63
2022-08-19T13:44:05.442Z,5.60
2022-08-19T13:46:32.629Z,6.10
2022-08-19T13:48:59.785Z,6.13
2022-08-19T13:51:27.031Z,5.78
2022-08-19T13:53:54.494Z,5.82
2022-08-19T13:56:25.572Z,6.32
2022-08-19T13:58:54.558Z,6.32
2022-08-19T14:01:24.469Z,5.70
2022-08-19T14:03:52.425Z,5.97
2022-08-19T14:06:20.320Z,6.00
2022-08-19T14:08:47.546Z,5.88
2022-08-19T14:11:15.139Z,6.25
2022-08-19T14:13:42.391Z,5.70
2022-08-19T14:16:11.688Z,5.97
2022-08-19T14:18:40.661Z,5.40
2022-08-19T14:21:08.174Z,5.30
2022-08-19T14:23:36.987Z,5.82
2022-08-19T14:26:10.298Z,5.63
2022-08-19T14:28:37.339Z,5.63
2022-08-19T14:31:04.422Z,5.60
2022-08-19T14:33:31.630Z,5.13
2022-08-19T14:35:59.810Z,6.13
2022-08-19T14:38:31.628Z,5.22
2022-08-19T14:41:10.955Z,5.28
2022-08-19T14:43:38.609Z,5.07
2022-08-19T14:46:06.470Z,5.40
2022-08-19T14:48:33.918Z,5.32
2022-08-19T14:51:00.894Z,5.78
2022-08-19T14:53:28.104Z,5.05
2022-08-19T14:55:55.199Z,5.22
2022-08-19T14:58:28.998Z,4.75
2022-08-19T15:01:00.802Z,4.80
2022-08-19T15:03:29.498Z,5.70
2022-08-19T15:05:58.608Z,5.45
2022-08-19T15:08:27.076Z,5.70
2022-08-19T15:10:55.178Z,5.60
2022-08-19T15:13:22.534Z,5.75
2022-08-19T15:15:49.766Z,5.47
2022-08-19T15:18:16.813Z,5.47
2022-08-19T15:20:46.618Z,5.30
2022-08-19T15:23:16.278Z,5.13
2022-08-19T15:25:44.507Z,6.15
2022-08-19T15:28:12.170Z,6.22
2022-08-19T15:30:41.203Z,6.40
2022-08-19T15:33:08.578Z,4.95
2022-08-19T15:35:35.526Z,5.38
2022-08-19T15:38:03.053Z,5.70
2022-08-19T15:40:30.147Z,6.10
2022-08-19T15:42:58.246Z,6.68
2022-08-19T15:45:32.517Z,5.15
2022-08-19T15:48:01.742Z,5.43
2022-08-19T15:50:31.967Z,5.30
2022-08-19T15:53:06.060Z,6.22
2022-08-19T15:55:36.278Z,6.18
2022-08-19T15:58:28.880Z,5.82
2022-08-19T16:01:21.565Z,5.60
2022-08-19T16:04:13.880Z,5.50
2022-08-19T16:06:46.785Z,5.95
2022-08-19T16:09:15.478Z,5.80
2022-08-19T16:11:45.958Z,5.88
2022-08-19T16:14:19.035Z,5.90
2022-08-19T16:16:47.725Z,6.28
2022-08-19T16:19:20.289Z,5.80
2022-08-19T16:21:50.712Z,5.95
2022-08-19T16:24:20.392Z,6.80
2022-08-19T16:26:48.295Z,5.97
2022-08-19T16:29:33.181Z,5.43
2022-08-19T16:32:04.018Z,6.03
2022-08-19T16:34:31.953Z,6.10
2022-08-19T16:37:00.898Z,6.25
2022-08-19T16:39:28.107Z,6.30
2022-08-19T16:41:55.428Z,6.18
2022-08-19T16:44:22.553Z,5.93
2022-08-19T16:46:58.397Z,6.13
2022-08-19T16:49:53.358Z,6.45
2022-08-19T16:52:19.173Z,7.07
2022-08-19T16:54:46.864Z,5.55
2022-08-19T16:57:14.046Z,6.15
2022-08-19T16:59:48.454Z,6.38
2022-08-19T17:02:19.451Z,6.18
2022-08-19T17:04:57.284Z,7.45
2022-08-19T17:07:33.448Z,7.47
2022-08-19T17:10:04.738Z,6.82
2022-08-19T17:12:32.523Z,6.15
2022-08-19T17:15:02.717Z,7.05
2022-08-19T17:17:31.640Z,7.20
2022-08-19T17:20:00.476Z,6.95
2022-08-19T17:22:27.906Z,7.15
2022-08-19T17:24:57.829Z,7.40
2022-08-19T17:27:31.378Z,6.63
2022-08-19T17:30:02.640Z,6.90
2022-08-19T17:32:30.854Z,7.20
2022-08-19T17:34:58.195Z,7.65
2022-08-19T17:37:25.592Z,7.30
2022-08-19T17:39:52.693Z,6.97
2022-08-19T17:42:20.310Z,7.13
2022-08-19T17:44:50.684Z,7.80
2022-08-19T17:47:19.453Z,7.13
2022-08-19T17:49:46.746Z,7.93
2022-08-19T17:52:14.373Z,8.48
2022-08-19T17:54:41.457Z,9.35
2022-08-19T17:57:09.646Z,10.73
2022-08-19T17:59:40.218Z,9.27
2022-08-19T18:02:10.037Z,9.98
2022-08-19T18:04:38.525Z,10.80
2022-08-19T18:07:06.391Z,9.48
2022-08-19T18:09:42.746Z,10.82
2022-08-19T18:12:13.816Z,10.80
2022-08-19T18:14:41.882Z,11.50
2022-08-19T18:17:12.995Z,10.77
2022-08-19T18:19:43.124Z,10.30
2022-08-19T18:22:36.993Z,9.63
2022-08-19T18:25:08.804Z,9.15
2022-08-19T18:27:36.074Z,9.20
2022-08-19T18:30:07.456Z,8.20
2022-08-19T18:32:38.489Z,8.75
2022-08-19T18:35:12.622Z,8.93
2022-08-19T18:37:44.856Z,8.70
2022-08-19T18:40:34.867Z,9.07
2022-08-19T18:43:20.593Z,11.07
2022-08-19T18:46:07.243Z,10.63
2022-08-19T18:48:54.696Z,12.15
2022-08-19T18:51:28.475Z,9.60
2022-08-19T18:53:58.764Z,10.15
2022-08-19T18:56:29.293Z,8.50
2022-08-19T18:58:56.797Z,11.43
2022-08-19T19:01:32.091Z,11.35
2022-08-19T19:04:01.793Z,10.57
2022-08-19T19:06:35.889Z,11.70
2022-08-19T19:09:03.617Z,9.20
2022-08-19T19:11:33.983Z,10.73
2022-08-19T19:14:03.486Z,11.75
2022-08-19T19:16:31.717Z,10.98
2022-08-19T19:18:59.253Z,10.95
2022-08-19T19:21:26.844Z,10.82
2022-08-19T19:23:55.545Z,11.88
2022-08-19T19:26:23.146Z,11.90
2022-08-19T19:28:51.476Z,13.75
2022-08-19T19:31:23.250Z,18.88
2022-08-19T19:33:50.683Z,16.08
2022-08-19T19:36:17.631Z,11.43
2022-08-19T19:38:48.700Z,12.32
2022-08-19T19:41:20.137Z,11.60
2022-08-19T19:43:56.654Z,12.15
2022-08-19T19:46:33.566Z,13.40
2022-08-19T19:49:01.102Z,12.75
2022-08-19T19:51:29.041Z,12.90
2022-08-19T19:54:00.099Z,13.00
2022-08-19T19:56:27.367Z,11.98
2022-08-19T19:58:54.478Z,12.98
2022-08-19T20:01:24.879Z,13.15
2022-08-19T20:03:54.591Z,12.98
2022-08-19T20:06:22.426Z,12.57
2022-08-19T20:09:07.813Z,11.98
2022-08-19T20:11:38.940Z,12.25
2022-08-19T20:14:11.819Z,12.93
2022-08-19T20:16:44.111Z,14.57
2022-08-19T20:19:13.606Z,14.85
2022-08-19T20:21:44.953Z,13.90
2022-08-19T20:24:17.230Z,14.70
2022-08-19T20:26:47.191Z,13.50
2022-08-19T20:29:39.469Z,14.40
2022-08-19T20:32:09.206Z,14.27
2022-08-19T20:34:37.325Z,15.15
2022-08-19T20:37:04.789Z,14.07
2022-08-19T20:39:32.184Z,14.88
2022-08-19T20:42:00.858Z,14.43
2022-08-19T20:44:27.861Z,15.45
2022-08-19T20:46:58.404Z,14.15
2022-08-19T20:49:27.632Z,14.77
2022-08-19T20:51:56.644Z,14.75
2022-08-19T20:54:24.441Z,14.90
2022-08-19T20:56:51.827Z,14.35
2022-08-19T20:59:20.157Z,14.40
2022-08-19T21:01:48.557Z,15.07
2022-08-19T21:04:15.527Z,13.73
2022-08-19T21:06:45.367Z,14.93
2022-08-19T21:09:13.792Z,13.70
2022-08-19T21:11:41.210Z,14.57
2022-08-19T21:14:08.510Z,15.50
2022-08-19T21:16:35.879Z,15.75
2022-08-19T21:19:03.678Z,14.98
2022-08-19T21:21:31.588Z,15.93
2022-08-19T21:23:59.002Z,15.15
2022-08-19T21:26:25.989Z,15.48
2022-08-19T21:28:53.445Z,16.17
2022-08-19T21:31:21.172Z,15.90
2022-08-19T21:33:48.153Z,15.70
2022-08-19T21:36:15.143Z,16.27
2022-08-19T21:38:42.317Z,15.77
2022-08-19T21:41:09.436Z,16.17
2022-08-19T21:43:37.677Z,17.40
2022-08-19T21:46:05.317Z,16.52
2022-08-19T21:48:32.933Z,17.45
2022-08-19T21:50:59.964Z,17.90
2022-08-19T21:53:34.110Z,17.15
2022-08-19T21:56:03.360Z,17.67
2022-08-19T21:58:30.809Z,18.38
2022-08-19T22:01:05.805Z,18.45
2022-08-19T22:03:35.425Z,19.15
2022-08-19T22:06:02.875Z,19.88
2022-08-19T22:08:31.426Z,19.23
2022-08-19T22:11:01.609Z,19.45
2022-08-19T22:13:30.240Z,19.75
2022-08-19T22:15:57.179Z,20.27
2022-08-19T22:18:24.733Z,19.38
2022-08-19T22:20:52.171Z,20.63
2022-08-19T22:23:19.170Z,20.98
2022-08-19T22:25:47.404Z,20.13
2022-08-19T22:28:19.012Z,20.05
2022-08-19T22:30:56.068Z,21.05
2022-08-19T22:33:23.970Z,21.13
2022-08-19T22:35:52.203Z,21.73
2022-08-19T22:38:19.426Z,21.63
2022-08-19T22:40:48.453Z,21.75
2022-08-19T22:43:18.545Z,21.88
2022-08-19T22:45:47.425Z,22.25
2022-08-19T22:48:19.738Z,22.25
2022-08-19T22:51:08.681Z,22.10
2022-08-19T22:53:38.012Z,22.45
2022-08-19T22:56:14.611Z,22.33
2022-08-19T22:58:43.539Z,23.48
2022-08-19T23:01:14.718Z,22.80
2022-08-19T23:03:56.559Z,22.85
2022-08-19T23:06:25.269Z,23.27
2022-08-19T23:09:02.041Z,21.98
2022-08-19T23:11:34.711Z,22.88
2022-08-19T23:14:03.932Z,22.25
2022-08-19T23:16:34.818Z,22.08
2022-08-19T23:19:02.076Z,22.52
2022-08-19T23:21:29.116Z,22.25
2022-08-19T23:23:56.640Z,22.23
2022-08-19T23:26:23.754Z,21.50
2022-08-19T23:29:09.133Z,22.23
2022-08-19T23:31:36.464Z,21.88
2022-08-19T23:34:03.891Z,22.55
2022-08-19T23:36:31.044Z,20.80
2022-08-19T23:38:59.580Z,21.27
2022-08-19T23:41:28.006Z,21.65
2022-08-19T23:43:55.176Z,21.33
2022-08-19T23:46:28.067Z,23.17
2022-08-19T23:48:56.948Z,23.08
2022-08-19T23:51:26.761Z,22.92
2022-08-19T23:53:53.927Z,22.92
2022-08-19T23:56:21.529Z,22.65
2022-08-19T23:58:49.282Z,23.67
